Atlantic, Pennsylvania
Current Conditions -  °F | °C
As of 8:53 PM on Friday 21 Nov 2014 (Local Time) from KGKJ Reporting Station
Clear Clear  
Wind Chill:   Ceiling: Unl
Heat Index: 18°   Visibility: 10mi
Dew Point:   Wind: 7mph
Humidity: 62%   Direction: 190°S
Pressure: 30.4"   Gusts: NA
Location:  41.5°N, 80.33°W
Report Text: KGKJ 220153Z AUTO 19006KT 10SM CLR M08/M14 A3040 RMK AO2 SLP317 T10781139 TSNO
Loading
Personal Weather Stations






























Interactive Weather Map New forecast layout! Learn more

10-Day Weather Forecast

Advertisements
Track Severe Weather on mobile